x

Stonewall Bank - 20nm West Of Newport, Or (46050) Wave Buoy

1:50pm - Sun 26th Apr 2015 All times are PDT. -7 hours from GMT.

  • Sig Wave height 5.6ft
  • Swell Direction
  • Peak Period 6s
  • Average Period 5s
  • Wind
    25mph, 29mph gusts
  • Sea Temp 54°f
  • Air Temp 51°f
  • Sea Pressure 1022.6mb
  • Stonewall Bank - 20nm West Of Newport, Or
  • Stonewall Bank - 20nm West Of Newport, Or

More Historic Weather Station data

Upgrade to MSW Pro to gain access to the past 30 days of data for over 8000 Wavebouys and Weather Stations around the globe.

Join Pro

Comparision Forecast

View Surf forecast
   
Sun 04/26 1:50pm 5.5ft 6s 5s 25 29 mph 1022.6mb 54f 51f
12:50pm 4.5ft 5s 5s 25 31 mph 1022.2mb 54f 51f
11:50am 4.5ft 5s 5s 22 25 mph 1022.2mb 54f 51f
10:50am 4.5ft 8s 5s 20 25 mph 1021.9mb 54f 51f
9:50am 5ft 10s 5s 20 25 mph 1020.9mb 54f 51f
8:50am 4.5ft 9s 5s 20 22 mph 1020.5mb 54f 52f
7:50am 4.5ft 8s 6s 18 22 mph 1020.2mb 54f 52f
6:50am 4.5ft 8s 6s 16 18 mph 1019.8mb 54f 52f
5:50am 4.5ft 10s 6s 18 20 mph 1019.3mb 54f 52f
4:50am 5ft 10s 7s 16 18 mph 1018.9mb 54f 52f
3:50am 5ft 10s 7s 13 16 mph 1019mb 54f 52f
2:50am 5ft 10s 7s 13 16 mph 1019.2mb 54f 52f
1:50am 4.5ft 11s 8s 11 13 mph 1019.2mb 55f 52f
12:50am 5.5ft 9s 8s 9 11 mph 1019.3mb 55f 52f
Sat 04/25 11:50pm 4.5ft 10s 7s 7 9 mph 1019.1mb 54f 53f
10:50pm 5ft 9s 8s 2 4 mph 1018.9mb 55f 53f
9:50pm 5ft 10s 7s  -  2 mph 1018.5mb 55f 53f
8:50pm 5.5ft 9s 7s 2 4 mph 1018.1mb 55f 53f
7:50pm 5.5ft 11s 7s 2 4 mph 1018mb 55f 53f
6:50pm 6ft 10s 7s 2 4 mph 1017.7mb 55f 54f
5:50pm 6ft 11s 7s 4
mph
1017.4mb 56f 54f
4:50pm 6.5ft 8s 8s 2 4 mph 1017.4mb 56f 53f
3:50pm 6ft 9s 7s 4 7 mph 1017.2mb 57f 53f
2:50pm 7ft 10s 8s 2 4 mph 1017mb 57f 53f
1:50pm 6.5ft 9s 8s 2
mph
1017mb 56f 53f
12:50pm 6.5ft 11s 8s  -  2 mph 1017mb 55f 52f
11:50am 7.5ft 12s 9s  -  2 mph 1016.7mb 55f 53f
10:50am 6.5ft 11s 8s 7 9 mph 1016.1mb 54f 51f
9:50am 7ft 10s 8s 4 7 mph 1015.5mb 54f 51f
8:50am 7.5ft 11s 8s 7 9 mph 1014.9mb 53f 51f
7:50am 7.5ft 12s 8s  -  2 mph 1014.1mb 53f 54f
6:50am 8ft 11s 8s 2 4 mph 1013.9mb 53f 51f
5:50am 8.5ft 12s 8s 7 9 mph 1013.3mb 54f 52f
4:50am 9ft 11s 8s 7 9 mph 1013.1mb 54f 52f
3:50am 9ft 12s 8s 11 13 mph 1012.9mb 54f 52f
2:50am 9.5ft 12s 8s 7 9 mph 1012.7mb 54f 52f
1:50am 9.5ft 12s 8s 9 11 mph 1012.6mb 54f 52f
12:50am 9.5ft 13s 8s 4 7 mph 1012.8mb 54f 51f
Fri 04/24 11:50pm 10ft 13s 8s 11 13 mph 1012.6mb 54f 51f
10:50pm 10.5ft 13s 8s 9 11 mph 1012.7mb 54f 51f
9:50pm 10ft 13s 8s 9 11 mph 1012.6mb 54f 53f
8:50pm 9.5ft 13s 8s 11 16 mph 1012.4mb 54f 53f
7:50pm 10.5ft 13s 8s 11 16 mph 1012.3mb 54f 53f
6:50pm 10ft 15s 9s 13 16 mph 1012.1mb 54f 53f
5:50pm 9ft 12s 8s 13 18 mph 1012.2mb 54f 53f
4:50pm 10ft 14s 8s 16 20 mph 1012.2mb 54f 53f
3:50pm 11ft 11s 9s 13 16 mph 1012.2mb 54f 53f
2:50pm 11.5ft 13s 9s 13 18 mph 1012.3mb 54f 53f
1:50pm 12.5ft 13s 9s 13 18 mph 1012.2mb 54f 52f
12:50pm 12.5ft 12s 9s 16 18 mph 1012.1mb 54f 51f
11:50am 13ft 14s 9s 16 20 mph 1012.3mb 54f 52f
10:50am 11.5ft 15s 9s 13 16 mph 1012.4mb 53f 51f
9:50am 12.5ft 15s 9s 16 20 mph 1011.9mb 53f 52f
8:50am 12ft 16s 9s 9 13 mph 1011.9mb 53f 51f
7:50am 12.5ft 16s 9s 16 20 mph 1011.4mb 53f 51f
6:50am 11ft 11s 8s 13 18 mph 1011.1mb 53f 52f
5:50am 10.5ft 11s 8s 13 16 mph 1010.9mb 53f 52f
4:50am 8.5ft 11s 7s 13 16 mph 1010.9mb 53f 52f
3:50am 9ft 11s 7s 16 20 mph 1011.1mb 53f 52f
2:50am 9ft 10s 7s 7 9 mph 1011.3mb 53f 50f
1:50am 9ft 11s 7s 18 22 mph 1011.4mb 53f 51f
12:50am 8.5ft 10s 8s 18 25 mph 1011.5mb 53f 53f
Thu 04/23 11:50pm 8.5ft 11s 8s 9 13 mph 1011.6mb 54f 50f
10:50pm 7.5ft 11s 7s 13 16 mph 1012mb 53f 52f
9:50pm 7ft 11s 7s 13 20 mph 1012.1mb 53f 52f
8:50pm 6.5ft 10s 7s 13 16 mph 1011.8mb 53f 52f
7:50pm 6ft 9s 6s 16 18 mph 1011.9mb 53f 53f
6:50pm 7ft 8s 6s 16 18 mph 1011.6mb 53f 53f
5:50pm 6.5ft 10s 6s 13 16 mph 1011.7mb 53f 53f
4:50pm 7.5ft 10s 6s 16 18 mph 1011.7mb 53f 54f
3:50pm 8ft 6s 6s 13 16 mph 1011.9mb 53f 53f
2:50pm 7ft 6s 6s 20 25 mph 1012.2mb 53f 51f
1:50pm 6.5ft 11s 6s 22 27 mph 1012.6mb 53f 49f
12:50pm 5.5ft 10s 6s 25 29 mph 1012.5mb 53f 49f
11:50am 6ft 10s 6s 22 29 mph 1013.1mb 53f 50f
10:50am 5ft 11s 6s 22 27 mph 1013.7mb 53f 50f
9:50am 5.5ft 11s 7s 20 22 mph 1014.4mb 53f 50f
8:50am 5.5ft 11s 7s 13 16 mph 1015.2mb 52f 50f
7:50am 6ft 11s 8s 11 13 mph 1015.8mb 53f 50f
6:50am 6.5ft 11s 8s 9 13 mph 1015.9mb 53f 50f
5:50am 6ft 11s 7s 7 9 mph 1016.4mb 53f 51f
4:50am 6ft 11s 7s 4 7 mph 1016.9mb 53f 51f
3:50am 6.5ft 11s 7s 4 7 mph 1017.5mb 53f 51f
2:50am 7ft 11s 7s 4 7 mph 1018mb 53f 51f
1:50am 7ft 12s 7s 7 9 mph 1018.6mb 53f 51f
12:50am 7ft 11s 7s 11 13 mph 1019.2mb 53f 51f
Wed 04/22 11:50pm 7ft 11s 7s 11 13 mph 1019.5mb 53f 51f
10:50pm 6ft 9s 6s 11 13 mph 1019.7mb 53f 51f